Terminal Aerodrome Forecast
Issued by NWS

Home | Current Version | Previous Version | Text Only | Print | Product List | Glossary On
Versions: 1 2 3 4 5 6 7 8 9 10 11 12 13 14 15 16 17 18 19 20 21 22 23 24 25 26 27 28 29 30 31 32
684
FTUS46 KMTR 290520
TAFSFO
TAF
KSFO 290520Z 2906/3012 27017KT P6SM SCT005 OVC009
     FM290700 27013KT P6SM OVC009
     FM291900 29016KT P6SM SCT010
     FM292200 28022G27KT P6SM SCT015
     FM300300 27017KT P6SM BKN012
     FM300600 27014KT P6SM OVC012=

USA.gov is the U.S. government's official web portal to all federal, state and local government web resources and services.